Time;durP1;ratioP1;P1;durP2;ratioP2;P2;SDS_P1;SDS_P2;PMS_P1;PMS_P2;Temp;Humidity;BMP_temperature;BMP_pressure;BME280_temperature;BME280_humidity;BME280_pressure;Samples;Min_cycle;Max_cycle;Signal;HPM_P1;HPM_P2
2023/07/11 00:00:14;;;;;;;5.15;3.25;;;21.60;97.60;;;;;;4910986;29;20043;-81
2023/07/11 00:02:43;;;;;;;5.70;3.28;;;21.60;97.70;;;;;;4909662;29;20034;-79
2023/07/11 00:05:09;;;;;;;5.70;3.58;;;;;;;;;;4896612;29;20059;-85
2023/07/11 00:07:35;;;;;;;5.00;2.88;;;;;;;;;;4915287;29;20529;-79
2023/07/11 00:10:00;;;;;;;5.40;3.15;;;21.50;98.30;;;;;;4914832;29;20028;-79
2023/07/11 00:12:28;;;;;;;5.85;3.38;;;21.50;98.40;;;;;;4914825;29;20381;-78
2023/07/11 00:14:56;;;;;;;5.82;2.88;;;21.50;98.70;;;;;;4910033;29;20035;-78
2023/07/11 00:17:22;;;;;;;6.25;3.35;;;;;;;;;;4908280;29;20039;-80
2023/07/11 00:19:54;;;;;;;6.15;3.13;;;21.40;98.90;;;;;;4917461;29;20411;-80
2023/07/11 00:22:21;;;;;;;6.82;3.20;;;21.40;99.10;;;;;;4918723;29;20035;-83
2023/07/11 00:24:49;;;;;;;5.00;3.03;;;21.40;99.20;;;;;;4915834;29;20024;-80
2023/07/11 00:27:17;;;;;;;7.43;3.33;;;21.30;99.30;;;;;;4918832;29;20032;-80
2023/07/11 00:29:43;;;;;;;6.80;3.10;;;21.20;99.50;;;;;;4914420;29;20020;-84
2023/07/11 00:32:09;;;;;;;4.72;2.97;;;;;;;;;;4891761;29;20059;-78
2023/07/11 00:34:35;;;;;;;8.93;3.40;;;;;;;;;;4911838;29;20111;-79
2023/07/11 00:37:01;;;;;;;5.70;3.10;;;21.10;99.90;;;;;;4897307;29;20035;-79
2023/07/11 00:39:29;;;;;;;5.72;3.13;;;21.10;99.90;;;;;;4896129;29;20151;-79
2023/07/11 00:41:56;;;;;;;7.70;4.03;;;;;;;;;;4897001;29;20444;-79
2023/07/11 00:44:23;;;;;;;5.93;3.58;;;21.10;99.90;;;;;;4898091;29;20031;-78
2023/07/11 00:46:50;;;;;;;6.75;3.40;;;21.20;99.90;;;;;;4897776;29;20043;-80
2023/07/11 00:49:17;;;;;;;7.13;3.38;;;21.10;99.90;;;;;;4898649;29;20511;-80
2023/07/11 00:51:48;;;;;;;7.25;4.15;;;21.10;99.90;;;;;;4897426;29;20020;-79
2023/07/11 00:54:17;;;;;;;6.00;3.70;;;21.00;99.90;;;;;;4924378;29;20008;-79
2023/07/11 00:56:45;;;;;;;8.50;3.70;;;21.20;99.90;;;;;;4908866;29;20028;-82
2023/07/11 00:59:14;;;;;;;4.68;3.28;;;21.10;99.90;;;;;;4907850;29;20036;-79
2023/07/11 01:01:42;;;;;;;6.05;3.25;;;21.10;99.90;;;;;;4911013;29;20511;-79
2023/07/11 01:04:08;;;;;;;5.45;3.10;;;;;;;;;;4894436;29;20508;-79
2023/07/11 01:06:34;;;;;;;5.28;3.17;;;;;;;;;;4910343;29;20262;-79
2023/07/11 01:09:01;;;;;;;7.50;3.70;;;21.00;99.90;;;;;;4910623;29;20483;-79
2023/07/11 01:11:30;;;;;;;5.88;2.92;;;20.90;99.90;;;;;;4915106;29;20594;-79
2023/07/11 01:13:56;;;;;;;6.40;3.15;;;20.80;99.90;;;;;;4907579;29;20040;-79
2023/07/11 01:16:22;;;;;;;5.30;3.25;;;;;;;;;;4914332;29;20039;-79
2023/07/11 01:18:48;;;;;;;6.43;3.20;;;;;;;;;;4914493;29;20859;-79
2023/07/11 01:21:21;;;;;;;5.00;2.90;;;20.80;99.90;;;;;;4899861;29;20181;-78
2023/07/11 01:23:47;;;;;;;6.80;3.33;;;;;;;;;;4900356;29;20075;-79
2023/07/11 01:26:13;;;;;;;5.93;3.30;;;;;;;;;;4918299;29;20499;-79
2023/07/11 01:28:40;;;;;;;6.55;3.15;;;20.70;99.90;;;;;;4914913;29;20032;-78
2023/07/11 01:31:06;;;;;;;7.22;3.83;;;;;;;;;;4899303;29;20243;-79
2023/07/11 01:33:33;;;;;;;4.72;2.95;;;20.60;99.90;;;;;;4898494;29;20123;-79
2023/07/11 01:35:59;;;;;;;5.22;3.13;;;;;;;;;;4896186;29;20043;-79
2023/07/11 01:38:25;;;;;;;5.70;3.40;;;;;;;;;;4904876;29;20032;-79
2023/07/11 01:40:54;;;;;;;5.93;3.67;;;20.50;99.90;;;;;;4917426;29;20071;-79
2023/07/11 01:43:20;;;;;;;7.13;3.40;;;;;;;;;;4903539;29;20400;-78
2023/07/11 01:45:46;;;;;;;6.25;3.38;;;;;;;;;;4900655;29;20028;-78
2023/07/11 01:48:12;;;;;;;7.50;3.65;;;;;;;;;;4914449;29;20032;-78
2023/07/11 01:50:38;;;;;;;6.68;3.47;;;;;;;;;;4917679;29;20033;-79
2023/07/11 01:53:04;;;;;;;5.60;3.10;;;;;;;;;;4915877;29;20032;-79
2023/07/11 01:55:30;;;;;;;7.47;3.13;;;;;;;;;;4943262;29;20016;-79
2023/07/11 01:57:56;;;;;;;7.25;3.65;;;;;;;;;;4917117;29;20017;-78
2023/07/11 02:00:21;;;;;;;5.55;3.70;;;20.20;99.90;;;;;;4921784;29;20104;-78
2023/07/11 02:02:47;;;;;;;5.38;3.70;;;;;;;;;;4929890;29;20511;-79
2023/07/11 02:05:16;;;;;;;8.50;3.55;;;20.20;99.90;;;;;;4932049;29;20032;-78
2023/07/11 02:07:42;;;;;;;6.78;3.30;;;;;;;;;;4917270;29;20084;-78
2023/07/11 02:10:08;;;;;;;5.45;3.10;;;20.10;99.90;;;;;;4955523;23;20083;-84
2023/07/11 02:12:34;;;;;;;6.45;3.95;;;;;;;;;;4917495;29;20036;-81
2023/07/11 02:15:00;;;;;;;5.22;3.47;;;;;;;;;;4933970;29;20035;-85
2023/07/11 02:17:26;;;;;;;6.18;3.15;;;;;;;;;;4936979;29;20055;-83
2023/07/11 02:19:52;;;;;;;4.28;3.03;;;;;;;;;;4909894;29;20674;-79
2023/07/11 02:22:22;;;;;;;8.27;3.47;;;20.00;99.90;;;;;;4914469;29;20043;-83
2023/07/11 02:24:48;;;;;;;5.05;3.20;;;;;;;;;;4916683;29;20024;-82
2023/07/11 02:27:14;;;;;;;6.72;3.67;;;;;;;;;;4909581;29;20075;-82
2023/07/11 02:29:40;;;;;;;7.90;3.95;;;;;;;;;;4906056;29;20020;-82
2023/07/11 02:32:06;;;;;;;6.05;3.53;;;19.80;99.90;;;;;;4914094;29;20024;-85
2023/07/11 02:34:32;;;;;;;6.97;3.72;;;;;;;;;;4922935;29;20049;-84
2023/07/11 02:36:58;;;;;;;5.43;3.88;;;;;;;;;;4907491;29;20028;-83
2023/07/11 02:39:24;;;;;;;4.47;3.38;;;;;;;;;;4905769;29;20028;-84
2023/07/11 02:41:50;;;;;;;6.50;3.80;;;;;;;;;;4923069;29;20115;-82
2023/07/11 02:44:15;;;;;;;6.60;3.45;;;19.70;99.90;;;;;;4907638;29;20062;-85
2023/07/11 02:46:41;;;;;;;7.13;3.92;;;;;;;;;;4900697;29;20039;-79
2023/07/11 02:49:08;;;;;;;5.38;3.63;;;;;;;;;;4907426;29;20043;-83
2023/07/11 02:51:35;;;;;;;6.70;3.90;;;19.80;99.90;;;;;;4918452;29;20032;-82
2023/07/11 02:54:01;;;;;;;8.68;4.15;;;;;;;;;;4921072;29;20040;-82
2023/07/11 02:56:27;;;;;;;5.75;3.67;;;;;;;;;;4919515;29;20036;-84
2023/07/11 02:58:53;;;;;;;6.57;3.80;;;;;;;;;;4920361;29;20076;-80
2023/07/11 03:01:19;;;;;;;7.38;3.80;;;;;;;;;;4920394;29;20071;-81
2023/07/11 03:03:45;;;;;;;5.35;3.80;;;19.70;99.90;;;;;;4904458;29;20115;-82
2023/07/11 03:06:11;;;;;;;6.53;3.67;;;;;;;;;;4904012;29;20529;-82
2023/07/11 03:08:37;;;;;;;7.88;4.30;;;;;;;;;;4918300;29;20051;-84
2023/07/11 03:11:03;;;;;;;5.65;3.88;;;;;;;;;;4905607;29;20036;-79
2023/07/11 03:13:29;;;;;;;6.65;4.07;;;;;;;;;;4902971;29;20020;-81
2023/07/11 03:15:55;;;;;;;6.97;3.65;;;;;;;;;;4918554;29;20031;-82
2023/07/11 03:18:21;;;;;;;5.93;3.63;;;;;;;;;;4920212;29;20031;-81
2023/07/11 03:20:47;;;;;;;5.97;3.63;;;19.50;99.90;;;;;;4922178;29;20095;-82
2023/07/11 03:23:14;;;;;;;6.15;4.00;;;19.50;99.90;;;;;;4919537;29;20107;-81
2023/07/11 03:25:41;;;;;;;5.78;3.80;;;;;;;;;;4902088;29;20025;-82
2023/07/11 03:28:07;;;;;;;6.25;3.80;;;;;;;;;;4901267;29;20024;-80
2023/07/11 03:30:36;;;;;;;7.38;4.43;;;19.50;99.90;;;;;;4912343;29;20029;-82
2023/07/11 03:33:02;;;;;;;7.03;4.03;;;;;;;;;;4918054;29;20068;-82
2023/07/11 03:35:28;;;;;;;7.90;5.25;;;;;;;;;;4903144;29;20443;-83
2023/07/11 03:37:57;;;;;;;9.05;5.15;;;19.60;99.90;;;;;;4914057;29;20024;-82
2023/07/11 03:40:24;;;;;;;6.47;4.47;;;;;;;;;;4914262;29;20024;-81
2023/07/11 03:42:49;;;;;;;6.30;3.60;;;19.60;99.90;;;;;;4915798;29;20059;-82
2023/07/11 03:45:16;;;;;;;6.13;4.15;;;;;;;;;;4903626;29;20416;-82
2023/07/11 03:47:42;;;;;;;7.68;4.72;;;;;;;;;;4917871;29;20102;-80
2023/07/11 03:50:08;;;;;;;7.03;4.60;;;19.60;99.90;;;;;;4902998;29;20156;-82
2023/07/11 03:52:34;;;;;;;7.97;4.53;;;;;;;;;;4921220;29;20035;-82
2023/07/11 03:55:00;;;;;;;7.13;4.60;;;;;;;;;;4920510;29;20016;-83
2023/07/11 03:57:26;;;;;;;11.95;4.88;;;;;;;;;;4923711;29;20028;-80
2023/07/11 03:59:52;;;;;;;10.48;4.28;;;;;;;;;;4906321;29;20055;-83
2023/07/11 04:02:18;;;;;;;7.20;4.45;;;;;;;;;;4922615;29;20127;-83
2023/07/11 04:04:46;;;;;;;5.75;4.07;;;19.50;99.90;;;;;;4924371;29;20047;-83
2023/07/11 04:07:12;;;;;;;8.68;4.70;;;;;;;;;;4906568;29;20032;-83
2023/07/11 04:09:42;;;;;;;7.15;4.90;;;19.50;99.90;;;;;;4903081;29;20128;-83
2023/07/11 04:12:08;;;;;;;9.68;4.40;;;19.60;99.90;;;;;;4924338;29;20072;-81
2023/07/11 04:14:34;;;;;;;10.70;4.78;;;;;;;;;;4905902;29;20043;-82
2023/07/11 04:17:00;;;;;;;6.20;3.90;;;;;;;;;;4921417;29;20029;-82
2023/07/11 04:19:26;;;;;;;8.73;4.07;;;19.60;99.90;;;;;;4919574;29;20400;-84
2023/07/11 04:21:51;;;;;;;6.18;4.05;;;19.70;99.90;;;;;;4902914;29;20135;-83
2023/07/11 04:24:17;;;;;;;6.45;4.05;;;;;;;;;;4903383;29;20056;-83
2023/07/11 04:26:43;;;;;;;9.23;4.43;;;;;;;;;;4920426;29;20028;-82
2023/07/11 04:29:09;;;;;;;6.30;3.85;;;;;;;;;;4918652;29;20035;-82
2023/07/11 04:31:35;;;;;;;7.22;4.63;;;;;;;;;;4902024;29;20024;-81
2023/07/11 04:34:01;;;;;;;8.27;4.95;;;19.60;99.90;;;;;;4899292;29;20055;-82
2023/07/11 04:36:27;;;;;;;12.77;6.90;;;;;;;;;;4897360;29;20127;-81
2023/07/11 04:38:53;;;;;;;8.27;5.07;;;;;;;;;;4903152;29;20118;-80
2023/07/11 04:41:19;;;;;;;7.07;4.85;;;;;;;;;;4917659;29;20146;-83
2023/07/11 04:43:45;;;;;;;7.18;4.40;;;;;;;;;;4902657;29;20159;-82
2023/07/11 04:46:11;;;;;;;9.90;4.55;;;;;;;;;;4897593;29;20463;-80
2023/07/11 04:48:37;;;;;;;8.02;4.85;;;;;;;;;;4898329;29;20020;-81
2023/07/11 04:51:06;;;;;;;7.43;4.45;;;19.90;99.90;;;;;;4917393;29;20037;-84
2023/07/11 04:53:33;;;;;;;7.57;4.72;;;20.00;99.90;;;;;;4903891;29;20032;-82
2023/07/11 04:56:00;;;;;;;7.53;4.18;;;;;;;;;;4902682;29;20083;-84
2023/07/11 04:58:32;;;;;;;8.30;4.50;;;20.10;99.90;;;;;;4900691;29;20124;-83
2023/07/11 05:01:02;;;;;;;5.93;4.32;;;20.10;99.90;;;;;;4919515;29;20060;-83
2023/07/11 05:03:28;;;;;;;5.60;4.05;;;;;;;;;;4898687;29;20043;-83
2023/07/11 05:05:54;;;;;;;8.07;4.30;;;;;;;;;;4917633;29;20039;-81
2023/07/11 05:08:20;;;;;;;8.02;4.32;;;;;;;;;;4917008;29;20526;-81
2023/07/11 05:10:58;;;;;;;6.32;4.30;;;20.20;99.90;;;;;;4904613;29;20030;-84
2023/07/11 05:13:24;;;;;;;10.00;4.88;;;;;;;;;;4914672;29;20032;-81
2023/07/11 05:15:50;;;;;;;7.63;4.78;;;;;;;;;;4902644;29;20025;-86
2023/07/11 05:18:18;;;;;;;7.68;5.07;;;20.40;99.90;;;;;;4918209;29;20099;-84
2023/07/11 05:20:44;;;;;;;9.02;4.60;;;;;;;;;;4918864;29;20024;-81
2023/07/11 05:23:10;;;;;;;8.40;4.07;;;;;;;;;;4919696;29;20156;-84
2023/07/11 05:25:37;;;;;;;19.25;4.93;;;;;;;;;;4920071;29;20020;-82
2023/07/11 05:28:04;;;;;;;8.55;5.68;;;;;;;;;;4906565;29;20507;-84
2023/07/11 05:30:30;;;;;;;9.73;4.72;;;;;;;;;;4919521;29;20012;-84
2023/07/11 05:32:56;;;;;;;10.65;4.55;;;;;;;;;;4928508;29;20039;-82
2023/07/11 05:35:22;;;;;;;8.73;4.32;;;;;;;;;;4908389;29;20024;-85
2023/07/11 05:37:48;;;;;;;6.50;4.00;;;;;;;;;;4928937;29;20039;-85
2023/07/11 05:40:14;;;;;;;7.43;4.25;;;;;;;;;;4925225;29;20483;-81
2023/07/11 05:42:40;;;;;;;8.45;4.57;;;;;;;;;;4905622;29;20028;-81
2023/07/11 05:45:06;;;;;;;16.75;5.70;;;24.00;99.90;;;;;;4904581;29;20055;-81
2023/07/11 05:47:32;;;;;;;7.38;4.22;;;;;;;;;;4916709;29;20441;-83
2023/07/11 05:49:58;;;;;;;17.10;5.32;;;;;;;;;;4899384;29;20035;-83
2023/07/11 05:52:24;;;;;;;11.23;4.85;;;;;;;;;;4907680;29;20028;-84
2023/07/11 05:54:50;;;;;;;8.13;4.80;;;;;;;;;;4896327;29;20032;-86
2023/07/11 05:57:16;;;;;;;7.45;4.55;;;;;;;;;;4894219;29;20428;-83
2023/07/11 05:59:42;;;;;;;8.52;4.40;;;;;;;;;;4900532;29;20028;-83
2023/07/11 06:02:09;;;;;;;7.43;4.35;;;24.30;98.90;;;;;;4896841;29;20043;-83
2023/07/11 06:04:35;;;;;;;8.85;4.65;;;;;;;;;;4912649;29;20484;-84
2023/07/11 06:07:01;;;;;;;6.78;4.32;;;;;;;;;;4897597;29;20732;-81
2023/07/11 06:09:27;;;;;;;8.13;4.72;;;;;;;;;;4896922;29;20032;-88
2023/07/11 06:11:53;;;;;;;10.23;4.50;;;;;;;;;;4912923;29;20028;-88
2023/07/11 06:14:20;;;;;;;7.15;4.50;;;;;;;;;;4913369;29;20448;-87
2023/07/11 06:16:46;;;;;;;10.02;4.45;;;;;;;;;;4917096;29;20032;-88
2023/07/11 06:19:12;;;;;;;6.22;3.97;;;;;;;;;;4904931;29;20032;-87
2023/07/11 06:21:39;;;;;;;6.10;3.72;;;;;;;;;;4918845;29;20500;-86
2023/07/11 06:24:05;;;;;;;7.88;4.50;;;;;;;;;;4913264;29;20056;-87
2023/07/11 06:26:31;;;;;;;8.05;4.20;;;;;;;;;;4920460;29;20043;-87
2023/07/11 06:28:57;;;;;;;7.22;4.13;;;;;;;;;;4901928;29;20024;-88
2023/07/11 06:31:23;;;;;;;8.32;4.45;;;;;;;;;;4899703;29;20032;-86
2023/07/11 06:33:50;;;;;;;8.05;4.22;;;;;;;;;;4911789;29;20041;-88
2023/07/11 06:36:16;;;;;;;7.90;4.30;;;;;;;;;;4917223;29;20043;-88
2023/07/11 06:38:42;;;;;;;6.78;4.38;;;;;;;;;;4918094;29;20059;-87
2023/07/11 06:41:08;;;;;;;10.43;4.38;;;;;;;;;;4899394;29;20036;-89
2023/07/11 06:43:34;;;;;;;7.93;4.57;;;;;;;;;;4900366;29;22210;-87
2023/07/11 06:46:01;;;;;;;7.43;4.30;;;;;;;;;;4906877;29;20140;-87
2023/07/11 06:48:29;;;;;;;8.55;4.43;;;24.10;98.90;;;;;;4913920;29;20156;-88
2023/07/11 06:50:58;;;;;;;6.80;3.92;;;24.10;99.00;;;;;;4906339;29;20035;-87
2023/07/11 06:53:26;;;;;;;8.63;4.38;;;24.20;98.80;;;;;;4902824;29;20040;-87
2023/07/11 06:55:52;;;;;;;8.68;4.20;;;;;;;;;;4918111;29;20029;-86
2023/07/11 06:58:19;;;;;;;8.02;4.50;;;24.40;98.70;;;;;;4901475;29;20056;-85
2023/07/11 07:00:45;;;;;;;6.65;4.03;;;;;;;;;;4895321;29;20091;-85
2023/07/11 07:03:14;;;;;;;8.52;4.45;;;;;;;;;;4903773;29;20040;-83
2023/07/11 07:05:55;;;;;;;7.22;3.90;;;24.30;98.80;;;;;;4916443;29;20025;-85
2023/07/11 07:08:22;;;;;;;9.13;4.22;;;;;;;;;;4897274;29;20033;-86
2023/07/11 07:10:48;;;;;;;6.40;4.10;;;;;;;;;;4904564;29;20047;-86
2023/07/11 07:13:15;;;;;;;8.57;4.47;;;24.80;98.20;;;;;;4905184;29;20059;-86
2023/07/11 07:15:41;;;;;;;11.00;4.50;;;;;;;;;;4911180;29;20035;-86
2023/07/11 07:18:07;;;;;;;7.85;3.97;;;;;;;;;;4909875;29;20052;-87
2023/07/11 07:20:33;;;;;;;8.95;4.38;;;;;;;;;;4925832;29;20034;-86
2023/07/11 07:22:59;;;;;;;6.68;3.78;;;;;;;;;;4909944;29;20091;-85
2023/07/11 07:25:25;;;;;;;13.93;4.10;;;;;;;;;;4919056;29;20103;-83
2023/07/11 07:27:51;;;;;;;9.55;4.22;;;;;;;;;;4923895;29;20030;-86
2023/07/11 07:30:17;;;;;;;6.43;3.50;;;;;;;;;;4926577;29;20020;-86
2023/07/11 07:32:43;;;;;;;7.03;3.80;;;;;;;;;;4913784;29;20096;-83
2023/07/11 07:35:09;;;;;;;7.72;4.10;;;;;;;;;;4913193;29;20036;-87
2023/07/11 07:37:36;;;;;;;17.83;10.57;;;;;;;;;;4913353;29;20040;-85
2023/07/11 07:40:02;;;;;;;9.48;3.90;;;;;;;;;;4911206;29;20043;-83
2023/07/11 07:42:28;;;;;;;13.18;3.72;;;;;;;;;;4907767;29;20050;-84
2023/07/11 07:44:55;;;;;;;6.90;3.60;;;;;;;;;;4907894;29;20123;-86
2023/07/11 07:47:24;;;;;;;7.35;4.13;;;;;;;;;;4918166;29;20036;-84
2023/07/11 07:49:50;;;;;;;6.55;3.80;;;;;;;;;;4919292;29;20039;-83
2023/07/11 07:52:17;;;;;;;10.18;3.90;;;;;;;;;;4906316;29;20033;-85
2023/07/11 07:54:43;;;;;;;5.93;3.95;;;;;;;;;;4909931;29;20025;-87
2023/07/11 07:57:09;;;;;;;8.23;3.83;;;;;;;;;;4924905;29;20024;-87
2023/07/11 07:59:35;;;;;;;9.73;3.72;;;;;;;;;;4910547;29;20079;-88
2023/07/11 08:02:01;;;;;;;7.60;3.80;;;;;;;;;;4909882;29;20024;-85
2023/07/11 08:04:29;;;;;;;7.15;3.65;;;;;;;;;;4910759;29;20056;-84
2023/07/11 08:06:56;;;;;;;11.20;3.65;;;;;;;;;;4913589;29;20419;-90
2023/07/11 08:09:22;;;;;;;6.15;3.40;;;;;;;;;;4912869;29;20052;-86
2023/07/11 08:11:48;;;;;;;8.88;3.85;;;;;;;;;;4914440;29;20024;-86
2023/07/11 08:14:14;;;;;;;6.25;3.50;;;;;;;;;;4911656;29;20058;-90
2023/07/11 08:16:40;;;;;;;7.88;4.22;;;;;;;;;;4931954;29;20035;-88
2023/07/11 08:19:06;;;;;;;7.05;3.38;;;;;;;;;;4928850;29;20020;-83
2023/07/11 08:21:32;;;;;;;6.63;3.50;;;;;;;;;;4925227;29;20036;-88
2023/07/11 08:23:58;;;;;;;7.63;3.85;;;;;;;;;;4915256;29;21946;-84
2023/07/11 08:26:25;;;;;;;7.35;3.50;;;;;;;;;;4915648;29;20059;-86
2023/07/11 08:28:51;;;;;;;7.68;3.55;;;;;;;;;;4913138;29;20028;-86
2023/07/11 08:31:17;;;;;;;7.57;4.18;;;;;;;;;;4912974;29;20028;-85
2023/07/11 08:33:43;;;;;;;6.45;3.78;;;;;;;;;;4912705;29;20036;-85
2023/07/11 08:36:10;;;;;;;6.30;3.30;;;;;;;;;;4908997;29;20047;-87
2023/07/11 08:38:38;;;;;;;6.57;3.90;;;;;;;;;;4924096;29;20029;-87
2023/07/11 08:41:16;;;;;;;6.32;3.85;;;;;;;;;;4909150;29;20032;-87
2023/07/11 08:43:43;;;;;;;7.40;3.70;;;;;;;;;;4908325;29;20063;-85
2023/07/11 08:46:14;;;;;;;11.13;4.10;;;28.60;91.70;;;;;;4910264;29;20028;-86
2023/07/11 08:48:48;;;;;;;6.00;3.05;;;;;;;;;;4921024;29;20051;-86
2023/07/11 08:51:24;;;;;;;9.70;3.30;;;28.80;91.80;;;;;;4918429;29;20078;-85
2023/07/11 08:53:55;;;;;;;7.90;4.00;;;;;;;;;;4924740;29;20039;-87
2023/07/11 08:56:30;;;;;;;7.05;3.55;;;;;;;;;;4908630;29;20032;-86
2023/07/11 08:58:58;;;;;;;5.85;3.85;;;;;;;;;;4917829;29;20027;-85
2023/07/11 09:01:28;;;;;;;7.30;3.70;;;;;;;;;;4916715;29;20589;-88
2023/07/11 09:03:56;;;;;;;12.50;4.28;;;;;;;;;;4920288;29;20067;-86
2023/07/11 09:06:23;;;;;;;5.70;3.97;;;;;;;;;;4902273;29;20028;-86
2023/07/11 09:08:54;;;;;;;10.10;4.00;;;;;;;;;;4913052;29;20666;-85
2023/07/11 09:11:31;;;;;;;7.07;4.10;;;;;;;;;;4923003;29;20107;-83
2023/07/11 09:14:09;;;;;;;7.43;3.85;;;;;;;;;;4919186;29;20540;-83
2023/07/11 09:16:37;;;;;;;5.78;3.63;;;;;;;;;;4901985;29;20036;-85
2023/07/11 09:19:11;;;;;;;7.03;4.40;;;;;;;;;;4906491;29;20040;-86
2023/07/11 09:21:47;;;;;;;6.82;4.00;;;;;;;;;;4917905;29;20403;-84
2023/07/11 09:24:31;;;;;;;8.73;4.40;;;29.80;91.30;;;;;;4910123;29;20037;-84
2023/07/11 09:27:04;;;;;;;8.27;4.18;;;30.00;91.00;;;;;;4918774;29;20048;-87
2023/07/11 09:29:30;;;;;;;7.78;3.70;;;;;;;;;;4917715;29;20043;-85
2023/07/11 09:31:59;;;;;;;6.88;3.85;;;;;;;;;;4920946;29;20034;-83
2023/07/11 09:34:28;;;;;;;5.87;3.77;;;;;;;;;;4897141;29;20028;-83
2023/07/11 09:36:56;;;;;;;7.57;4.45;;;;;;;;;;4912155;29;20718;-83
2023/07/11 09:39:26;;;;;;;8.40;4.45;;;;;;;;;;4907853;29;20032;-83
2023/07/11 09:41:56;;;;;;;6.25;4.00;;;;;;;;;;4901382;29;20424;-85
2023/07/11 09:44:22;;;;;;;7.85;4.20;;;;;;;;;;4900290;29;20041;-85
2023/07/11 09:46:48;;;;;;;8.60;3.75;;;;;;;;;;4908194;29;20024;-86
2023/07/11 09:49:20;;;;;;;6.28;4.20;;;;;;;;;;4903668;29;20020;-85
2023/07/11 09:51:53;;;;;;;9.73;4.20;;;;;;;;;;4905347;29;20044;-85
2023/07/11 09:54:21;;;;;;;7.28;4.25;;;;;;;;;;4907365;29;20099;-85
2023/07/11 09:56:48;;;;;;;7.95;4.10;;;;;;;;;;4905596;29;20028;-88
2023/07/11 09:59:14;;;;;;;8.40;3.97;;;;;;;;;;4916050;29;20039;-85
2023/07/11 10:01:41;;;;;;;7.07;4.57;;;;;;;;;;4918088;29;20020;-86
2023/07/11 10:04:23;;;;;;;7.35;4.03;;;30.80;89.70;;;;;;4919648;29;20032;-85
2023/07/11 10:07:00;;;;;;;6.72;3.83;;;;;;;;;;4893380;29;20024;-85
2023/07/11 10:09:27;;;;;;;5.95;3.67;;;;;;;;;;4906420;29;20037;-84
2023/07/11 10:12:01;;;;;;;8.45;4.28;;;;;;;;;;4917208;29;20088;-85
2023/07/11 10:14:30;;;;;;;9.05;4.40;;;;;;;;;;4914698;29;20032;-86
2023/07/11 10:16:57;;;;;;;8.67;4.20;;;;;;;;;;4921634;29;20024;-85
2023/07/11 10:19:25;;;;;;;8.85;4.30;;;;;;;;;;4904301;29;20311;-84
2023/07/11 10:21:51;;;;;;;7.15;4.10;;;;;;;;;;4917329;29;20033;-88
2023/07/11 10:24:19;;;;;;;8.85;4.35;;;;;;;;;;4905060;29;20047;-85
2023/07/11 10:26:47;;;;;;;9.95;4.32;;;;;;;;;;4924536;29;20036;-85
2023/07/11 10:29:18;;;;;;;7.88;4.18;;;;;;;;;;4918187;29;20399;-85
2023/07/11 10:31:59;;;;;;;6.80;4.28;;;;;;;;;;4924365;29;20043;-85
2023/07/11 12:54:26;;;;;;;7.88;4.78;;;34.20;73.70;;;;;;4912056;29;20129;-85
2023/07/11 14:11:09;;;;;;;9.55;4.93;;;;;;;;;;5018671;23;20095;-85
2023/07/11 14:13:37;;;;;;;7.43;5.15;;;;;;;;;;4906302;29;20028;-85
2023/07/11 14:16:04;;;;;;;7.22;4.18;;;;;;;;;;4914641;29;20038;-86
2023/07/11 14:18:31;;;;;;;7.20;4.95;;;;;;;;;;4915668;29;20036;-86
2023/07/11 14:20:58;;;;;;;12.20;5.30;;;34.30;67.80;;;;;;4899698;29;20060;-86
2023/07/11 14:23:28;;;;;;;9.10;4.75;;;34.40;68.00;;;;;;4889155;29;20100;-87
2023/07/11 14:25:54;;;;;;;8.45;4.82;;;;;;;;;;4892882;29;20033;-86
2023/07/11 14:28:20;;;;;;;7.45;4.60;;;;;;;;;;4890230;29;20040;-84
2023/07/11 14:30:47;;;;;;;9.15;4.80;;;;;;;;;;4910704;29;20119;-85
2023/07/11 14:33:18;;;;;;;8.57;4.78;;;34.20;68.60;;;;;;4910615;29;20050;-84
2023/07/11 14:35:45;;;;;;;10.57;5.55;;;;;;;;;;4903633;29;20454;-87
2023/07/11 14:38:18;;;;;;;8.00;5.00;;;;;;;;;;4892471;29;20092;-85
2023/07/11 14:40:45;;;;;;;8.18;5.30;;;;;;;;;;4889652;29;20029;-84
2023/07/11 14:43:16;;;;;;;6.47;4.75;;;34.00;68.70;;;;;;4892650;29;20049;-85
2023/07/11 14:45:42;;;;;;;8.93;5.25;;;;;;;;;;4909105;29;20055;-83
2023/07/11 14:48:25;;;;;;;9.23;5.10;;;33.80;69.00;;;;;;4909069;29;20035;-85
2023/07/11 14:50:58;;;;;;;9.73;5.32;;;33.70;69.00;;;;;;4895164;29;20076;-86
2023/07/11 14:53:36;;;;;;;6.68;5.20;;;;;;;;;;4891324;29;20040;-85
2023/07/11 14:56:05;;;;;;;11.20;5.47;;;33.60;69.80;;;;;;4905095;29;20043;-85
2023/07/11 14:58:31;;;;;;;8.98;4.88;;;;;;;;;;4892402;29;20044;-83
2023/07/11 15:00:57;;;;;;;7.85;5.55;;;33.40;70.20;;;;;;4891648;29;20041;-82
2023/07/11 15:03:26;;;;;;;9.45;5.63;;;33.40;70.60;;;;;;4909833;29;20050;-87
2023/07/11 15:05:52;;;;;;;8.55;5.35;;;;;;;;;;4891127;29;20068;-86
2023/07/11 15:08:21;;;;;;;12.20;5.45;;;33.20;71.20;;;;;;4910816;29;20219;-85
2023/07/11 15:10:49;;;;;;;8.02;5.47;;;33.10;71.40;;;;;;4910005;29;20069;-86
2023/07/11 15:13:15;;;;;;;9.30;4.95;;;;;;;;;;4916003;29;20039;-86
2023/07/11 15:15:42;;;;;;;9.02;5.00;;;;;;;;;;4891686;29;20429;-86
2023/07/11 15:18:15;;;;;;;9.30;5.22;;;;;;;;;;4887988;29;20452;-86
2023/07/11 15:20:41;;;;;;;8.40;5.50;;;;;;;;;;4904985;29;21025;-87
2023/07/11 15:23:13;;;;;;;9.88;5.38;;;32.50;73.90;;;;;;4888588;29;20144;-86
2023/07/11 15:25:39;;;;;;;8.30;5.68;;;;;;;;;;4892875;29;20025;-86
2023/07/11 15:28:29;;;;;;;13.63;5.85;;;;;;;;;;4892258;29;20033;-85
2023/07/11 15:31:25;;;;;;;7.53;5.40;;;;;;;;;;4896911;29;20024;-86
2023/07/11 15:34:02;;;;;;;13.45;6.18;;;;;;;;;;4904885;29;20037;-85
2023/07/11 15:36:37;;;;;;;9.45;4.80;;;;;;;;;;4891411;29;20071;-87
2023/07/11 15:39:06;;;;;;;8.82;4.70;;;;;;;;;;4894777;29;20037;-89
2023/07/11 15:41:45;;;;;;;6.65;4.15;;;;;;;;;;4895728;29;20117;-89
2023/07/11 15:44:40;;;;;;;7.57;4.30;;;;;;;;;;4904962;29;20043;-85
2023/07/11 15:47:11;;;;;;;10.65;4.30;;;;;;;;;;4887688;29;20040;-84
2023/07/11 15:49:44;;;;;;;6.75;4.70;;;;;;;;;;4893232;29;20059;-87
2023/07/11 15:52:21;;;;;;;10.23;5.40;;;;;;;;;;4907408;29;20036;-87
2023/07/11 15:54:58;;;;;;;12.80;5.22;;;;;;;;;;4893824;29;20032;-87
2023/07/11 15:57:25;;;;;;;9.65;5.20;;;;;;;;;;4909715;29;20060;-87
2023/07/11 15:59:51;;;;;;;7.80;5.43;;;;;;;;;;4890748;29;20458;-85
2023/07/11 16:02:20;;;;;;;11.43;5.43;;;;;;;;;;4890006;29;20435;-86
2023/07/11 16:04:52;;;;;;;9.68;5.70;;;;;;;;;;4890866;29;20051;-86
2023/07/11 16:07:31;;;;;;;;;;;;;;;;;;;;;
2023/07/11 16:10:00;;;;;;;11.32;6.20;;;;;;;;;;4907364;29;20089;-88
2023/07/11 16:12:47;;;;;;;16.20;6.38;;;;;;;;;;4888701;29;20096;-83
2023/07/11 16:15:20;;;;;;;9.75;5.93;;;;;;;;;;4904566;29;20041;-86
2023/07/11 16:17:56;;;;;;;10.15;5.63;;;;;;;;;;4890020;29;20045;-85
2023/07/11 16:20:38;;;;;;;11.35;6.57;;;;;;;;;;4884214;29;20021;-85
2023/07/11 16:23:10;;;;;;;10.48;5.60;;;;;;;;;;4903109;29;20052;-85
2023/07/11 16:25:36;;;;;;;10.02;5.10;;;;;;;;;;4907188;29;20088;-83
2023/07/11 16:28:05;;;;;;;8.10;5.05;;;;;;;;;;4892971;29;20508;-85
2023/07/11 16:30:31;;;;;;;11.55;5.18;;;;;;;;;;4902973;29;20444;-84
2023/07/11 16:32:58;;;;;;;8.00;5.68;;;;;;;;;;4890632;29;20127;-88
2023/07/11 16:35:35;;;;;;;12.25;6.15;;;;;;;;;;4889973;29;20039;-86
2023/07/11 16:38:02;;;;;;;9.43;5.70;;;;;;;;;;4892908;29;20047;-84
2023/07/11 16:40:28;;;;;;;12.00;5.55;;;;;;;;;;4902670;29;20499;-88
2023/07/11 16:42:55;;;;;;;8.68;5.07;;;;;;;;;;4906731;29;20056;-88
2023/07/11 16:45:23;;;;;;;8.23;5.55;;;28.30;95.10;;;;;;4891223;29;20024;-86
2023/07/11 16:47:50;;;;;;;9.95;5.70;;;;;;;;;;4885094;29;20021;-84
2023/07/11 16:50:24;;;;;;;8.75;5.72;;;;;;;;;;4902219;29;20394;-84
2023/07/11 16:52:50;;;;;;;11.27;5.75;;;;;;;;;;4898209;29;20032;-88
2023/07/11 16:55:16;;;;;;;11.00;6.35;;;;;;;;;;4907752;29;20366;-83
2023/07/11 16:57:43;;;;;;;10.23;6.10;;;;;;;;;;4891562;29;20096;-87
2023/07/11 17:00:16;;;;;;;9.63;6.45;;;;;;;;;;4910339;29;20039;-87
2023/07/11 17:02:45;;;;;;;9.52;6.40;;;;;;;;;;4911039;29;20020;-84
2023/07/11 17:05:14;;;;;;;13.38;7.22;;;;;;;;;;4926615;29;20024;-86
2023/07/11 17:07:40;;;;;;;10.95;6.82;;;;;;;;;;4878875;29;20028;-82
2023/07/11 17:10:07;;;;;;;8.80;6.50;;;;;;;;;;4862535;29;20139;-84
2023/07/11 17:12:37;;;;;;;10.30;5.88;;;;;;;;;;4881406;29;20162;-84
2023/07/11 17:15:11;;;;;;;13.43;6.18;;;28.00;97.70;;;;;;4871752;29;20040;-83
2023/07/11 17:17:37;;;;;;;12.15;6.00;;;27.90;98.00;;;;;;4886219;29;20029;-82
2023/07/11 17:20:16;;;;;;;12.30;5.82;;;26.90;97.80;;;;;;4876181;29;20609;-82
2023/07/11 17:22:42;;;;;;;;;;;27.80;98.30;;;;;;4886828;29;20112;-80
2023/07/11 17:25:19;;;;;;;10.93;6.03;;;;;;;;;;4884710;29;19923;-80
2023/07/11 17:27:50;;;;;;;9.57;5.15;;;27.60;99.00;;;;;;4866181;29;20040;-79
2023/07/11 17:30:21;;;;;;;9.82;5.57;;;27.60;99.70;;;;;;4880801;29;20163;-80
2023/07/11 17:32:48;;;;;;;11.98;5.60;;;;;;;;;;4858577;29;20052;-80
2023/07/11 17:35:17;;;;;;;9.93;5.85;;;27.50;99.90;;;;;;4873949;29;21217;-80
2023/07/11 17:37:46;;;;;;;10.30;5.15;;;;;;;;;;4862411;29;20096;-79
2023/07/11 17:40:23;;;;;;;7.30;4.93;;;27.40;99.70;;;;;;4855595;29;20800;-79
2023/07/11 17:42:50;;;;;;;10.65;5.72;;;27.40;99.50;;;;;;4881992;29;20063;-80
2023/07/11 17:45:20;;;;;;;10.68;4.85;;;27.40;99.40;;;;;;4867443;29;20504;-79
2023/07/11 17:47:46;;;;;;;;;;;27.40;98.90;;;;;;4882010;29;20033;-79